Time;durP1;ratioP1;P1;durP2;ratioP2;P2;SDS_P1;SDS_P2;PMS_P1;PMS_P2;Temp;Humidity;BMP_temperature;BMP_pressure;BME280_temperature;BME280_humidity;BME280_pressure;Samples;Min_cycle;Max_cycle;Signal;HPM_P1;HPM_P2
2024/01/01 00:01:24;;;;;;;8.80;3.90;;;;;;;5.43;80.19;94704.13;5032540;28;20186;-78
2024/01/01 00:03:50;;;;;;;9.53;4.70;;;;;;;5.28;80.43;94695.19;4999190;28;20549;-78
2024/01/01 00:06:15;;;;;;;6.23;2.33;;;;;;;5.15;81.19;94698.03;5015543;28;20587;-78
2024/01/01 00:08:40;;;;;;;7.17;1.77;;;;;;;5.11;81.22;94706.97;5014458;28;20249;-78
2024/01/01 00:11:07;;;;;;;4.50;2.10;;;;;;;5.13;81.13;94699.13;4998405;28;20182;-78
2024/01/01 00:13:32;;;;;;;4.20;1.90;;;;;;;5.11;80.66;94700.06;5014655;28;20808;-77
2024/01/01 00:15:57;;;;;;;5.03;2.43;;;;;;;5.22;80.31;94699.13;5012228;28;20225;-78
2024/01/01 00:18:23;;;;;;;3.40;2.20;;;;;;;5.25;80.35;94700.59;5012098;28;20268;-78
2024/01/01 00:20:48;;;;;;;4.47;1.80;;;;;;;5.20;80.79;94695.84;5014132;28;20189;-77
2024/01/01 00:23:13;;;;;;;5.03;2.20;;;;;;;5.22;80.74;94700.88;5002174;28;20693;-77
2024/01/01 00:25:39;;;;;;;4.23;1.80;;;;;;;5.20;80.97;94692.47;4998248;28;20261;-78
2024/01/01 00:28:08;;;;;;;3.73;1.83;;;;;;;5.31;80.90;94693.16;5004919;28;20270;-77
2024/01/01 00:30:35;;;;;;;3.53;2.00;;;;;;;5.17;81.17;94703.84;5033560;28;20190;-78
2024/01/01 00:33:00;;;;;;;3.13;1.70;;;;;;;5.10;81.49;94698.44;5015685;28;20210;-78
2024/01/01 00:35:26;;;;;;;3.00;1.50;;;;;;;5.09;81.81;94698.56;5013895;28;20189;-78
2024/01/01 00:37:51;;;;;;;6.20;2.27;;;;;;;5.09;81.89;94701.13;4999506;28;20688;-78
2024/01/01 00:40:16;;;;;;;5.53;2.23;;;;;;;5.29;81.06;94700.19;5002190;28;20205;-78
2024/01/01 00:42:47;;;;;;;4.80;2.10;;;;;;;5.25;81.52;94695.47;5016272;28;20252;-78
2024/01/01 00:45:12;;;;;;;3.77;1.97;;;;;;;5.18;81.99;94700.34;5016000;28;20332;-78
2024/01/01 00:47:37;;;;;;;5.07;2.30;;;;;;;5.23;82.41;94699.94;5018798;28;20234;-77
2024/01/01 00:50:04;;;;;;;4.97;2.53;;;;;;;5.33;82.54;94698.97;5018126;28;20194;-78
2024/01/01 00:52:29;;;;;;;3.73;2.30;;;;;;;5.25;83.60;94709.16;4995677;28;20720;-78
2024/01/01 00:54:55;;;;;;;5.00;2.93;;;;;;;5.07;83.85;94710.75;5013826;28;20317;-78
2024/01/01 00:57:20;;;;;;;6.43;2.43;;;;;;;5.55;82.71;94713.31;5013578;28;20291;-78
2024/01/01 00:59:45;;;;;;;4.40;2.70;;;;;;;5.49;83.26;94719.03;5012549;28;20242;-78
2024/01/01 01:02:11;;;;;;;5.27;2.93;;;;;;;5.55;83.72;94713.31;5013142;28;20191;-78
2024/01/01 01:04:37;;;;;;;5.43;3.03;;;;;;;5.49;84.63;94719.03;5015608;28;20874;-78
2024/01/01 01:07:05;;;;;;;11.77;3.17;;;;;;;5.52;84.92;94728.25;4996540;28;20206;-78
2024/01/01 01:09:30;;;;;;;8.13;2.90;;;;;;;5.45;85.57;94733.13;5030846;28;20561;-78
2024/01/01 01:11:55;;;;;;;9.73;3.57;;;;;;;5.24;86.77;94730.69;5013006;28;20293;-78
2024/01/01 01:14:21;;;;;;;5.27;3.33;;;;;;;5.15;87.71;94725.53;5004376;28;20190;-78
2024/01/01 01:16:46;;;;;;;8.30;3.80;;;;;;;5.19;87.67;94726.88;4997562;28;20660;-78
2024/01/01 01:19:12;;;;;;;9.97;4.13;;;;;;;4.98;89.02;94729.59;5014733;28;20186;-77
2024/01/01 01:21:37;;;;;;;8.00;3.37;;;;;;;5.01;88.56;94724.97;5014652;28;20179;-78
2024/01/01 01:24:03;;;;;;;8.57;3.30;;;;;;;4.87;89.08;94712.50;5001857;28;20201;-78
2024/01/01 01:26:28;;;;;;;7.07;3.40;;;;;;;5.12;88.51;94716.31;5014514;28;20190;-78
2024/01/01 01:28:54;;;;;;;6.00;2.70;;;;;;;5.02;88.78;94725.78;5012055;28;20190;-78
2024/01/01 01:31:19;;;;;;;7.20;3.03;;;;;;;5.16;87.57;94717.69;5016932;28;20209;-78
2024/01/01 01:33:45;;;;;;;5.27;2.27;;;;;;;4.83;87.88;94724.81;5019920;28;20242;-78
2024/01/01 01:36:10;;;;;;;7.10;3.17;;;;;;;5.13;87.31;94725.69;5016282;28;20209;-78
2024/01/01 01:38:38;;;;;;;6.63;3.27;;;;;;;5.01;87.27;94717.25;5021627;28;20335;-78
2024/01/01 01:41:03;;;;;;;12.17;4.27;;;;;;;4.92;88.56;94714.66;5003129;28;20187;-78
2024/01/01 01:43:29;;;;;;;6.70;3.20;;;;;;;4.77;89.01;94721.94;5002141;28;20273;-78
2024/01/01 01:45:54;;;;;;;6.97;3.93;;;;;;;4.85;88.42;94722.09;4999421;28;20276;-77
2024/01/01 01:48:20;;;;;;;5.43;3.10;;;;;;;4.79;89.05;94725.22;5021610;28;20209;-78
2024/01/01 01:50:46;;;;;;;6.50;2.93;;;;;;;4.95;88.00;94724.72;5003306;28;20187;-78
2024/01/01 01:53:13;;;;;;;5.87;3.27;;;;;;;4.88;88.43;94721.03;5017583;28;20213;-78
2024/01/01 01:55:43;;;;;;;4.97;2.60;;;;;;;5.02;87.44;94716.31;5002094;28;20285;-78
2024/01/01 01:58:09;;;;;;;7.60;3.20;;;;;;;5.09;86.65;94717.41;5019909;28;20221;-78
2024/01/01 02:00:35;;;;;;;4.33;2.40;;;;;;;4.90;87.43;94701.94;5018597;28;20192;-78
2024/01/01 02:03:01;;;;;;;5.83;2.00;;;;;;;4.79;87.79;94705.47;5017090;28;20197;-77
2024/01/01 02:05:26;;;;;;;5.70;2.50;;;;;;;4.87;87.29;94697.06;5021649;28;20192;-77
2024/01/01 02:07:52;;;;;;;4.43;2.40;;;;;;;4.96;87.13;94704.00;5001781;28;20214;-77
2024/01/01 02:10:17;;;;;;;5.00;2.33;;;;;;;4.92;86.29;94705.19;5017944;28;20274;-78
2024/01/01 02:12:44;;;;;;;5.13;2.60;;;;;;;4.79;87.60;94714.94;5018996;28;20230;-78
2024/01/01 02:15:10;;;;;;;6.47;2.80;;;;;;;4.92;86.64;94709.53;5005559;28;21045;-78
2024/01/01 02:17:35;;;;;;;4.67;2.87;;;;;;;5.05;86.20;94710.91;5017852;28;20274;-77
2024/01/01 02:20:00;;;;;;;8.77;2.70;;;;;;;4.70;87.64;94708.81;5000959;28;20234;-78
2024/01/01 02:22:35;;;;;;;5.60;2.70;;;;;;;4.80;87.34;94711.41;5018183;28;20192;-78
2024/01/01 02:25:01;;;;;;;7.80;2.97;;;;;;;4.88;86.83;94710.75;5020986;28;20185;-78
2024/01/01 02:27:26;;;;;;;4.77;3.10;;;;;;;4.80;87.30;94708.84;5016410;28;20210;-78
2024/01/01 02:29:51;;;;;;;5.87;2.67;;;;;;;4.90;86.61;94707.09;5018509;28;20495;-78
2024/01/01 02:32:17;;;;;;;6.07;2.77;;;;;;;5.14;86.59;94711.84;5018008;28;20214;-78
2024/01/01 02:34:42;;;;;;;5.67;3.73;;;;;;;5.08;86.25;94713.19;5019463;28;20190;-78
2024/01/01 02:37:07;;;;;;;5.87;2.10;;;;;;;5.09;86.27;94716.59;5018388;28;20213;-78
2024/01/01 02:39:33;;;;;;;5.90;2.57;;;;;;;4.86;87.21;94707.47;5004974;28;20190;-78
2024/01/01 02:41:58;;;;;;;6.40;2.07;;;;;;;4.87;86.46;94717.66;5002106;28;20190;-78
2024/01/01 02:44:23;;;;;;;3.47;1.90;;;;;;;5.19;85.64;94707.09;5017957;28;20190;-78
2024/01/01 02:46:49;;;;;;;7.27;1.93;;;;;;;5.11;85.48;94715.50;5017365;28;20227;-78
2024/01/01 02:49:14;;;;;;;4.70;3.10;;;;;;;5.31;85.05;94718.91;5022617;28;20189;-78
2024/01/01 02:51:43;;;;;;;4.67;2.57;;;;;;;5.33;84.53;94732.44;5012936;28;20744;-78
2024/01/01 02:54:09;;;;;;;5.97;2.20;;;;;;;5.38;84.86;94722.53;5016853;28;20190;-78
2024/01/01 02:56:34;;;;;;;6.40;2.47;;;;;;;5.28;84.74;94718.34;5018762;28;20204;-78
2024/01/01 02:58:59;;;;;;;3.90;2.27;;;;;;;5.22;85.05;94714.56;5018026;28;20214;-78
2024/01/01 03:01:24;;;;;;;4.20;2.40;;;;;;;5.23;84.70;94723.09;5018934;28;20226;-78
2024/01/01 03:03:50;;;;;;;6.00;2.30;;;;;;;5.19;84.94;94722.53;5020610;28;20187;-78
2024/01/01 03:06:18;;;;;;;5.67;2.60;;;;;;;5.34;84.35;94718.63;5019682;28;20187;-78
2024/01/01 03:08:44;;;;;;;8.67;3.03;;;;;;;5.10;85.02;94719.03;5016893;28;20273;-77
2024/01/01 03:11:09;;;;;;;5.07;2.07;;;;;;;5.23;84.56;94726.50;5016104;28;20230;-77
2024/01/01 03:13:35;;;;;;;4.07;2.10;;;;;;;5.04;84.13;94708.47;5016514;28;20218;-78
2024/01/01 03:16:01;;;;;;;3.53;1.70;;;;;;;4.98;83.77;94714.94;5000195;28;20191;-78
2024/01/01 03:18:26;;;;;;;3.10;1.53;;;;;;;5.02;83.67;94712.91;5017105;28;20210;-78
2024/01/01 03:20:51;;;;;;;2.57;1.73;;;;;;;5.01;83.08;94716.44;5016476;28;20202;-78
2024/01/01 03:23:17;;;;;;;6.53;1.90;;;;;;;5.06;82.64;94722.81;5016798;28;20209;-78
2024/01/01 03:25:42;;;;;;;4.30;1.70;;;;;;;4.90;83.25;94721.72;5003861;28;20215;-78
2024/01/01 03:28:08;;;;;;;4.37;1.60;;;;;;;4.78;82.62;94724.41;5000435;28;20269;-78
2024/01/01 03:30:33;;;;;;;5.20;1.63;;;;;;;4.96;82.63;94734.06;5019029;28;20560;-78
2024/01/01 03:32:58;;;;;;;8.60;1.83;;;;;;;5.15;81.21;94726.34;4999866;28;20282;-78
2024/01/01 03:35:24;;;;;;;3.57;1.60;;;;;;;5.01;81.49;94735.25;5020118;28;20204;-78
2024/01/01 03:37:49;;;;;;;6.60;1.67;;;;;;;4.96;80.71;94736.63;5016127;28;20214;-78
2024/01/01 03:40:15;;;;;;;6.03;1.80;;;;;;;5.27;79.97;94750.19;5021971;28;20194;-78
2024/01/01 03:42:40;;;;;;;8.57;1.90;;;;;;;5.16;80.27;94743.41;5017349;28;20179;-78
2024/01/01 03:45:06;;;;;;;8.60;2.30;;;;;;;5.28;79.72;94754.38;5018791;28;20238;-78
2024/01/01 03:47:34;;;;;;;7.80;2.43;;;;;;;5.11;80.29;94746.38;5000730;28;20797;-78
2024/01/01 03:49:59;;;;;;;8.40;2.67;;;;;;;5.09;80.19;94748.28;5004531;28;20236;-78
2024/01/01 03:52:25;;;;;;;6.07;1.53;;;;;;;4.75;80.88;94750.38;5001889;28;20202;-78
2024/01/01 03:54:51;;;;;;;6.10;1.90;;;;;;;5.05;80.66;94751.28;5014730;28;20186;-78
2024/01/01 03:57:16;;;;;;;10.00;2.33;;;;;;;5.11;79.73;94756.66;4999274;28;20241;-78
2024/01/01 03:59:41;;;;;;;7.67;1.93;;;;;;;4.83;80.63;94765.16;5018944;28;20225;-78
2024/01/01 04:02:09;;;;;;;7.47;1.80;;;;;;;4.91;79.75;94754.22;5019581;28;20188;-77
2024/01/01 04:04:35;;;;;;;5.73;1.90;;;;;;;5.00;79.19;94764.50;5002103;28;20257;-78
2024/01/01 04:07:00;;;;;;;10.30;1.70;;;;;;;4.89;78.50;94769.78;5017032;28;20230;-78
2024/01/01 04:09:26;;;;;;;6.40;1.80;;;;;;;5.01;77.71;94760.19;5014378;28;20210;-78
2024/01/01 04:11:51;;;;;;;10.03;2.43;;;;;;;5.08;77.88;94762.09;5015704;28;20187;-78
2024/01/01 04:14:16;;;;;;;11.50;2.63;;;;;;;5.14;77.88;94770.25;5017564;28;20193;-78
2024/01/01 04:16:42;;;;;;;11.57;2.20;;;;;;;5.20;77.69;94767.13;5001987;28;20238;-78
2024/01/01 04:19:07;;;;;;;6.77;1.93;;;;;;;5.15;77.33;94762.38;5016385;28;20178;-78
2024/01/01 04:21:32;;;;;;;8.23;2.03;;;;;;;5.09;77.18;94742.31;5013981;28;20233;-78
2024/01/01 04:23:58;;;;;;;7.33;2.17;;;;;;;5.05;77.01;94751.28;5015369;28;20183;-78
2024/01/01 04:26:24;;;;;;;7.40;2.23;;;;;;;5.11;76.34;94751.53;5016975;28;20247;-78
2024/01/01 04:28:49;;;;;;;8.73;1.50;;;;;;;4.84;76.13;94759.88;5015302;28;20191;-78
2024/01/01 04:31:15;;;;;;;8.67;1.80;;;;;;;5.17;75.43;94750.19;5003904;28;20182;-77
2024/01/01 04:33:40;;;;;;;6.33;1.50;;;;;;;5.16;75.21;94746.00;5001180;28;20276;-78
2024/01/01 04:36:05;;;;;;;10.63;2.10;;;;;;;4.76;75.32;94751.19;5017395;28;20190;-77
2024/01/01 04:38:31;;;;;;;6.50;1.60;;;;;;;4.97;74.98;94735.69;5001249;28;20280;-78
2024/01/01 04:40:56;;;;;;;8.33;1.73;;;;;;;4.96;74.77;94747.72;5002230;28;20679;-78
2024/01/01 04:43:22;;;;;;;8.63;1.70;;;;;;;5.05;74.69;94738.41;5017593;28;20177;-78
2024/01/01 04:45:47;;;;;;;7.57;1.40;;;;;;;4.86;75.60;94748.63;4999426;28;20557;-78
2024/01/01 04:48:13;;;;;;;10.97;1.53;;;;;;;4.96;74.98;94734.06;5015679;28;20589;-78
2024/01/01 04:50:38;;;;;;;12.20;2.37;;;;;;;4.87;75.33;94740.00;5020679;28;20186;-78
2024/01/01 04:53:03;;;;;;;9.43;1.80;;;;;;;4.90;75.65;94732.00;5013100;28;20241;-77
2024/01/01 04:55:29;;;;;;;7.57;1.70;;;;;;;4.68;76.12;94745.88;5015391;28;20201;-78
2024/01/01 04:57:54;;;;;;;4.80;1.37;;;;;;;4.69;75.76;94739.81;5015143;28;20217;-78
2024/01/01 05:00:19;;;;;;;8.20;1.20;;;;;;;5.05;75.04;94739.22;5005529;28;20197;-78
2024/01/01 05:02:45;;;;;;;8.00;1.87;;;;;;;4.73;75.96;94738.59;5001477;28;20197;-78
2024/01/01 05:05:10;;;;;;;7.37;1.50;;;;;;;5.01;75.61;94742.16;5021874;28;20312;-78
2024/01/01 05:07:37;;;;;;;7.47;1.50;;;;;;;5.14;75.41;94749.66;5019878;28;20277;-78
2024/01/01 05:10:03;;;;;;;7.33;1.70;;;;;;;4.75;75.88;94752.94;5019579;28;20729;-78
2024/01/01 05:12:28;;;;;;;7.30;1.57;;;;;;;4.89;75.29;94756.91;5018708;28;20203;-78
2024/01/01 05:14:54;;;;;;;8.87;1.67;;;;;;;4.74;75.67;94764.19;5023587;28;20240;-77
2024/01/01 05:17:19;;;;;;;5.03;1.30;;;;;;;4.77;76.02;94756.22;5020945;28;20209;-78
2024/01/01 05:19:44;;;;;;;7.40;1.20;;;;;;;4.58;75.83;94763.84;5019407;28;20187;-78
2024/01/01 05:22:10;;;;;;;7.53;1.37;;;;;;;4.95;75.24;94768.44;5000961;28;20202;-78
2024/01/01 05:24:36;;;;;;;7.50;1.47;;;;;;;4.91;75.27;94759.34;5005711;28;20198;-78
2024/01/01 05:27:03;;;;;;;10.13;1.57;;;;;;;4.88;74.54;94767.34;5002679;28;20211;-78
2024/01/01 05:29:28;;;;;;;5.87;1.50;;;;;;;4.71;74.76;94782.47;5016997;28;20183;-78
2024/01/01 05:31:54;;;;;;;6.63;1.73;;;;;;;4.84;74.55;94785.59;5018898;28;20191;-78
2024/01/01 05:34:20;;;;;;;5.43;1.47;;;;;;;4.86;74.07;94787.22;5003407;28;20730;-78
2024/01/01 05:36:45;;;;;;;7.27;1.20;;;;;;;5.10;73.69;94785.13;5017867;28;20230;-78
2024/01/01 05:39:10;;;;;;;8.73;1.70;;;;;;;5.27;73.08;94786.22;5020672;28;20206;-78
2024/01/01 05:41:36;;;;;;;8.07;1.63;;;;;;;4.96;73.46;94793.22;5020223;28;20217;-78
2024/01/01 05:44:01;;;;;;;11.87;1.67;;;;;;;5.15;73.16;94792.47;5001741;28;20183;-78
2024/01/01 05:46:27;;;;;;;4.73;1.63;;;;;;;5.00;73.43;94792.00;5016918;28;20189;-78
2024/01/01 05:48:52;;;;;;;6.10;1.70;;;;;;;5.20;72.58;94805.72;5018082;28;20317;-78
2024/01/01 05:51:18;;;;;;;6.63;1.50;;;;;;;5.31;72.16;94798.72;5003841;28;20190;-78
2024/01/01 05:53:44;;;;;;;8.13;1.57;;;;;;;5.20;71.60;94813.44;5015278;28;20310;-78
2024/01/01 05:56:09;;;;;;;7.13;1.43;;;;;;;5.45;71.39;94815.50;5016810;28;20195;-78
2024/01/01 05:58:34;;;;;;;8.27;1.77;;;;;;;5.33;71.47;94808.88;5020891;28;20206;-78
2024/01/01 06:01:00;;;;;;;7.00;1.40;;;;;;;5.46;70.74;94808.59;5021227;28;20213;-78
2024/01/01 06:03:26;;;;;;;6.33;1.50;;;;;;;5.51;70.89;94809.03;5018178;28;20190;-78
2024/01/01 06:05:51;;;;;;;9.63;1.80;;;;;;;5.38;71.04;94802.34;5021429;28;20655;-78
2024/01/01 06:08:16;;;;;;;9.43;1.80;;;;;;;5.40;70.55;94818.50;5019742;28;20573;-78
2024/01/01 06:10:42;;;;;;;8.03;1.67;;;;;;;5.32;70.79;94818.34;5002372;28;20624;-78
2024/01/01 06:13:07;;;;;;;9.23;1.87;;;;;;;5.31;70.52;94814.16;5000891;28;20266;-78
2024/01/01 06:15:32;;;;;;;10.73;2.23;;;;;;;5.27;70.60;94825.66;5022472;28;20278;-78
2024/01/01 06:17:58;;;;;;;5.17;1.80;;;;;;;5.22;70.20;94835.56;5015745;28;20226;-78
2024/01/01 06:20:23;;;;;;;8.83;2.30;;;;;;;5.28;70.14;94835.00;5016839;28;20201;-78
2024/01/01 06:22:49;;;;;;;8.70;1.97;;;;;;;5.09;70.31;94834.97;4998994;28;20846;-78
2024/01/01 06:25:14;;;;;;;5.33;1.40;;;;;;;5.24;70.11;94843.13;5020920;28;20660;-78
2024/01/01 06:27:40;;;;;;;7.47;1.70;;;;;;;5.19;70.12;94840.94;5018322;28;20207;-78
2024/01/01 06:30:06;;;;;;;10.20;1.40;;;;;;;5.02;70.43;94849.28;5000850;28;20191;-78
2024/01/01 06:32:32;;;;;;;8.43;1.70;;;;;;;5.12;70.39;94842.41;5017949;28;20252;-78
2024/01/01 06:34:57;;;;;;;6.93;1.60;;;;;;;5.02;70.38;94844.97;5020189;28;20207;-78
2024/01/01 06:37:23;;;;;;;8.43;1.73;;;;;;;5.16;70.61;94850.69;5017773;28;20281;-77
2024/01/01 06:39:48;;;;;;;8.07;1.73;;;;;;;4.95;70.38;94853.34;5017771;28;20199;-78
2024/01/01 06:42:15;;;;;;;9.43;1.87;;;;;;;4.95;70.41;94843.88;5020804;28;20646;-78
2024/01/01 06:44:41;;;;;;;8.10;1.40;;;;;;;5.24;69.78;94843.94;5002738;28;20705;-78
2024/01/01 06:47:06;;;;;;;10.30;2.93;;;;;;;5.13;69.59;94851.78;5017659;28;20206;-78
2024/01/01 06:49:32;;;;;;;7.73;1.60;;;;;;;5.05;70.88;94843.91;5004704;28;20197;-78
2024/01/01 06:51:57;;;;;;;9.00;1.50;;;;;;;4.87;71.37;94841.16;5017380;28;20277;-77
2024/01/01 06:54:22;;;;;;;4.97;1.40;;;;;;;4.74;72.04;94840.53;5015861;28;20236;-78
2024/01/01 06:56:48;;;;;;;5.17;1.40;;;;;;;4.87;72.01;94848.84;5018092;28;20233;-78
2024/01/01 06:59:13;;;;;;;7.93;1.47;;;;;;;4.86;72.60;94843.81;5019424;28;20187;-78
2024/01/01 07:01:41;;;;;;;8.43;1.37;;;;;;;4.89;72.14;94844.38;5001476;28;20624;-78
2024/01/01 07:04:06;;;;;;;7.10;2.40;;;;;;;4.74;72.68;94850.81;5016870;28;20193;-78
2024/01/01 07:06:31;;;;;;;7.70;1.90;;;;;;;4.90;72.25;94856.31;5019630;28;20229;-78
2024/01/01 07:08:57;;;;;;;9.20;1.63;;;;;;;4.75;72.80;94866.13;5017396;28;20565;-78
2024/01/01 07:11:22;;;;;;;3.37;1.20;;;;;;;4.88;72.71;94872.81;5017959;28;20194;-78
2024/01/01 07:13:47;;;;;;;5.33;1.53;;;;;;;4.70;73.90;94870.03;5019727;28;20210;-78
2024/01/01 07:16:13;;;;;;;4.83;1.30;;;;;;;4.61;74.63;94879.34;5004953;28;20194;-78
2024/01/01 07:18:38;;;;;;;5.67;1.67;;;;;;;4.72;74.25;94878.44;4999307;28;20403;-77
2024/01/01 07:21:06;;;;;;;5.90;2.00;;;;;;;4.52;75.28;94880.91;4999426;28;20187;-78
2024/01/01 07:23:32;;;;;;;8.53;2.37;;;;;;;4.74;74.83;94881.69;5013701;28;20553;-78
2024/01/01 07:25:57;;;;;;;5.53;1.87;;;;;;;4.57;75.34;94883.09;4999953;28;20186;-78
2024/01/01 07:28:25;;;;;;;9.40;1.60;;;;;;;4.90;74.26;94886.38;5013902;28;20241;-78
2024/01/01 07:30:50;;;;;;;6.93;1.13;;;;;;;4.62;75.20;94886.09;5017918;28;20280;-78
2024/01/01 07:33:16;;;;;;;10.37;1.40;;;;;;;4.74;74.81;94903.06;5020184;28;20237;-77
2024/01/01 07:35:42;;;;;;;6.43;1.43;;;;;;;4.74;75.49;94890.22;5018233;28;20310;-78
2024/01/01 07:38:07;;;;;;;9.60;1.30;;;;;;;4.73;75.62;94891.16;4998638;28;20234;-78
2024/01/01 07:40:33;;;;;;;6.83;1.43;;;;;;;4.87;75.09;94894.34;5019772;28;20589;-78
2024/01/01 07:42:59;;;;;;;6.93;1.50;;;;;;;4.73;75.69;94906.59;4999814;28;20211;-78
2024/01/01 07:45:24;;;;;;;9.00;1.70;;;;;;;4.98;74.75;94904.56;5018174;28;20214;-78
2024/01/01 07:47:50;;;;;;;6.73;1.10;;;;;;;4.86;75.35;94908.13;5015517;28;20211;-77
2024/01/01 07:50:15;;;;;;;5.07;1.20;;;;;;;4.84;75.38;94908.25;5018523;28;20707;-78
2024/01/01 07:52:40;;;;;;;3.80;1.17;;;;;;;5.15;74.36;94918.56;4997126;28;20214;-78
2024/01/01 07:55:06;;;;;;;7.03;1.40;;;;;;;5.23;73.97;94918.75;4998538;28;20297;-78
2024/01/01 07:57:33;;;;;;;5.37;1.37;;;;;;;4.94;74.65;94919.41;5016742;28;20738;-78
2024/01/01 07:59:58;;;;;;;6.77;1.53;;;;;;;5.17;73.82;94930.34;5015945;28;20187;-78
2024/01/01 08:02:24;;;;;;;7.47;1.40;;;;;;;5.27;73.82;94925.25;5019194;28;20217;-78
2024/01/01 08:04:50;;;;;;;6.80;1.17;;;;;;;5.02;73.50;94944.50;5013160;28;20223;-78
2024/01/01 08:07:15;;;;;;;5.73;1.47;;;;;;;5.25;73.36;94943.41;5014775;28;20237;-78
2024/01/01 08:09:40;;;;;;;7.50;2.57;;;;;;;5.19;73.19;94946.47;5011543;28;20191;-77
2024/01/01 08:12:06;;;;;;;2.90;1.37;;;;;;;5.36;72.76;94934.75;5023199;28;20183;-78
2024/01/01 08:14:31;;;;;;;4.93;1.57;;;;;;;5.21;72.28;94939.47;5014932;28;20213;-76
2024/01/01 08:16:56;;;;;;;5.80;1.27;;;;;;;5.35;72.44;94944.25;4996067;28;20246;-78
2024/01/01 08:19:22;;;;;;;4.20;1.20;;;;;;;5.22;72.36;94933.38;5013936;28;20269;-77
2024/01/01 08:21:47;;;;;;;3.70;1.20;;;;;;;5.38;72.82;94941.41;5007352;28;20187;-77
2024/01/01 08:24:13;;;;;;;6.53;1.27;;;;;;;5.30;72.03;94936.13;5005442;28;20197;-78
2024/01/01 08:26:38;;;;;;;2.70;1.30;;;;;;;5.61;71.35;94938.63;5017568;28;20198;-77
2024/01/01 08:29:04;;;;;;;7.27;1.10;;;;;;;5.42;72.25;94936.00;5012352;28;20187;-78
2024/01/01 08:31:29;;;;;;;3.90;1.30;;;;;;;5.66;70.97;94946.78;5017110;28;20571;-78
2024/01/01 08:33:55;;;;;;;5.30;1.33;;;;;;;5.48;72.02;94948.34;5013320;28;20218;-78
2024/01/01 08:36:21;;;;;;;7.63;1.40;;;;;;;5.52;71.09;94947.97;5019028;28;20655;-77
2024/01/01 08:38:46;;;;;;;6.57;1.33;;;;;;;5.48;71.00;94938.88;5014625;28;20198;-78
2024/01/01 08:41:11;;;;;;;7.37;1.43;;;;;;;5.61;70.60;94939.44;5006480;28;20529;-78
2024/01/01 08:43:37;;;;;;;8.50;1.30;;;;;;;5.75;70.02;94946.00;5019766;28;20220;-77
2024/01/01 08:46:05;;;;;;;8.13;1.37;;;;;;;5.62;70.03;94948.78;5021658;28;20187;-80
2024/01/01 08:48:31;;;;;;;6.23;1.40;;;;;;;5.80;69.29;94948.97;4995414;28;20237;-78
2024/01/01 08:50:57;;;;;;;5.87;1.23;;;;;;;5.74;69.10;94953.81;5015866;28;20226;-79
2024/01/01 08:53:22;;;;;;;8.40;1.20;;;;;;;5.75;69.55;94956.28;4998771;28;20249;-78
2024/01/01 08:55:47;;;;;;;7.57;1.93;;;;;;;5.85;69.23;94970.00;4999930;28;20190;-78
2024/01/01 08:58:13;;;;;;;9.90;1.73;;;;;;;5.69;69.57;94972.28;5004914;28;20219;-78
2024/01/01 09:00:38;;;;;;;8.00;1.83;;;;;;;5.86;69.61;94973.41;5023513;28;20187;-79
2024/01/01 09:03:04;;;;;;;6.27;1.20;;;;;;;6.29;68.55;94959.38;5021430;28;20206;-78
2024/01/01 09:05:29;;;;;;;6.93;1.57;;;;;;;6.27;67.97;94967.22;5005123;28;20572;-78
2024/01/01 09:07:55;;;;;;;8.47;1.50;;;;;;;6.33;68.07;94964.09;5020788;28;20218;-78
2024/01/01 09:10:21;;;;;;;5.40;2.03;;;;;;;6.32;68.69;94977.94;4989345;28;20214;-78
2024/01/01 09:12:46;;;;;;;5.43;1.90;;;;;;;5.95;69.02;94976.03;5019539;28;20234;-78
2024/01/01 09:15:15;;;;;;;7.87;1.47;;;;;;;6.25;68.47;94987.16;5006707;28;20276;-78
2024/01/01 09:17:43;;;;;;;7.30;1.63;;;;;;;5.97;68.78;94983.63;5020116;28;20207;-78
2024/01/01 09:20:10;;;;;;;6.30;1.20;;;;;;;6.35;68.63;94982.00;5016449;28;20218;-78
2024/01/01 09:22:36;;;;;;;8.10;1.47;;;;;;;6.28;68.39;94986.09;5017466;28;20286;-78
2024/01/01 09:25:01;;;;;;;11.73;2.23;;;;;;;6.17;68.07;94985.25;5001757;28;20274;-78
2024/01/01 09:27:27;;;;;;;10.33;1.73;;;;;;;6.12;68.49;94989.22;5021652;28;20653;-78
2024/01/01 09:29:53;;;;;;;6.60;2.40;;;;;;;6.49;67.96;94981.63;5000095;28;20199;-78
2024/01/01 09:32:18;;;;;;;6.40;1.67;;;;;;;6.27;67.57;94982.69;5001720;28;20217;-78
2024/01/01 09:34:43;;;;;;;4.47;1.53;;;;;;;6.31;67.56;94990.97;5019100;28;20230;-78
2024/01/01 09:37:09;;;;;;;5.60;1.70;;;;;;;6.43;66.28;94979.56;5002856;28;20207;-78
2024/01/01 09:39:35;;;;;;;4.80;1.90;;;;;;;6.39;65.89;94980.81;5018697;28;20202;-78
2024/01/01 09:42:01;;;;;;;9.13;2.00;;;;;;;6.25;65.93;94969.13;5019468;28;20199;-78
2024/01/01 09:44:27;;;;;;;6.83;1.67;;;;;;;6.29;65.30;94991.13;5018391;28;20194;-78
2024/01/01 09:46:52;;;;;;;7.90;2.20;;;;;;;6.41;65.47;94984.88;5018758;28;20210;-78
2024/01/01 09:49:17;;;;;;;8.13;1.63;;;;;;;6.37;65.34;94982.72;5019659;28;20194;-77
2024/01/01 09:51:43;;;;;;;9.70;2.20;;;;;;;6.35;65.46;94982.00;5001205;28;20380;-78
2024/01/01 09:54:09;;;;;;;7.00;2.07;;;;;;;6.71;64.81;94981.31;5006530;28;20297;-78
2024/01/01 09:56:35;;;;;;;10.63;2.47;;;;;;;6.72;64.50;94993.28;5019681;28;20190;-78
2024/01/01 09:59:00;;;;;;;8.50;1.93;;;;;;;6.52;64.23;94965.84;5016068;28;20180;-83
2024/01/01 10:01:25;;;;;;;5.83;1.53;;;;;;;6.35;64.25;94964.78;5018586;28;20193;-82
2024/01/01 10:04:03;;;;;;;5.10;1.43;;;;;;;6.77;64.65;94965.28;5014387;28;20671;-80
2024/01/01 10:06:30;;;;;;;11.50;2.13;;;;;;;6.57;64.68;94968.03;5014521;28;20244;-81
2024/01/01 10:09:08;;;;;;;9.00;1.83;;;;;;;6.61;64.40;94979.69;4990104;28;20191;-79
2024/01/01 10:11:35;;;;;;;9.13;1.40;;;;;;;6.53;64.56;94967.47;4993442;28;20183;-80
2024/01/01 10:14:04;;;;;;;8.07;2.10;;;;;;;6.96;63.64;94963.63;4994419;28;20211;-81
2024/01/01 10:16:30;;;;;;;12.33;2.73;;;;;;;6.60;64.55;94972.91;5011444;28;20187;-81
2024/01/01 10:18:57;;;;;;;10.33;2.07;;;;;;;6.87;64.17;94967.03;4994376;28;20195;-80
2024/01/01 10:21:30;;;;;;;10.17;2.13;;;;;;;7.36;62.94;94968.53;4995495;28;20605;-81
2024/01/01 10:23:57;;;;;;;9.07;1.87;;;;;;;7.12;63.18;94968.19;5008864;28;21050;-81
2024/01/01 10:26:23;;;;;;;8.67;2.47;;;;;;;7.02;62.91;94973.41;4994312;28;20233;-81
2024/01/01 10:28:48;;;;;;;7.47;1.70;;;;;;;6.87;63.32;94978.16;5007597;28;20187;-80
2024/01/01 10:31:15;;;;;;;10.13;2.53;;;;;;;6.96;63.15;94966.19;5009567;28;20221;-80
2024/01/01 10:33:41;;;;;;;8.50;1.70;;;;;;;6.89;63.59;94965.97;4992111;28;20227;-81
2024/01/01 10:36:07;;;;;;;10.60;1.83;;;;;;;6.88;63.44;94973.81;4994376;28;20187;-81
2024/01/01 10:38:33;;;;;;;5.87;1.63;;;;;;;6.85;63.44;94977.50;4991892;28;20724;-80
2024/01/01 10:40:59;;;;;;;11.27;1.80;;;;;;;6.71;63.71;94977.91;5010741;28;20214;-80
2024/01/01 10:43:28;;;;;;;6.33;1.80;;;;;;;6.95;63.42;94974.91;5012557;28;20179;-81
2024/01/01 10:46:04;;;;;;;9.47;1.83;;;;;;;6.74;64.21;94982.81;4996780;28;20179;-81
2024/01/01 10:48:33;;;;;;;7.10;1.90;;;;;;;6.85;63.55;94977.50;4995715;28;20693;-81
2024/01/01 10:51:31;;;;;;;7.40;1.70;;;;;;;7.02;63.70;94978.56;4995731;28;20179;-80
2024/01/01 10:54:11;;;;;;;10.53;2.10;;;;;;;7.08;63.47;94990.91;5011821;28;20234;-78
2024/01/01 10:56:43;;;;;;;10.73;1.93;;;;;;;7.02;63.28;94978.56;5011116;28;20191;-78
2024/01/01 10:59:22;;;;;;;15.90;4.63;;;;;;;6.96;62.74;94990.25;5012537;28;20208;-78
2024/01/01 11:01:52;;;;;;;8.43;3.03;;;;;;;7.23;62.55;94973.19;5014203;28;20265;-78
2024/01/01 11:04:21;;;;;;;27.27;8.73;;;;;;;7.19;61.98;94980.41;4994023;28;20273;-78
2024/01/01 11:06:46;;;;;;;13.70;2.77;;;;;;;7.17;62.32;94990.06;4995326;28;20277;-80
2024/01/01 11:09:21;;;;;;;8.60;2.47;;;;;;;7.09;62.49;94998.53;4996452;28;20187;-78
2024/01/01 11:11:53;;;;;;;15.23;2.43;;;;;;;7.18;64.02;95019.28;5015616;28;20187;-78
2024/01/01 11:14:28;;;;;;;7.80;2.50;;;;;;;7.33;64.96;95000.63;5016487;28;20213;-78
2024/01/01 11:16:54;;;;;;;6.40;2.07;;;;;;;7.46;64.31;95010.63;5014263;28;20289;-78
2024/01/01 11:19:48;;;;;;;12.07;3.07;;;;;;;7.48;63.51;95016.47;5016737;28;20199;-79
2024/01/01 11:22:20;;;;;;;7.67;2.00;;;;;;;6.81;64.35;95035.53;5011846;28;20218;-82
2024/01/01 11:24:49;;;;;;;6.80;1.87;;;;;;;6.60;64.65;95006.44;5009443;28;20197;-81
2024/01/01 11:27:27;;;;;;;10.80;2.37;;;;;;;7.25;63.98;95010.03;5010503;28;20587;-81
2024/01/01 11:29:52;;;;;;;12.10;2.27;;;;;;;7.20;64.04;95005.28;4994587;28;20217;-82
2024/01/01 11:32:18;;;;;;;12.07;2.37;;;;;;;7.50;62.73;94998.25;4995043;28;20644;-82
2024/01/01 11:34:44;;;;;;;10.33;1.90;;;;;;;7.64;62.46;95008.94;4995481;28;20186;-82
2024/01/01 11:37:09;;;;;;;11.20;2.60;;;;;;;7.38;62.37;95005.38;4996106;28;20600;-82